Weather at Herdade da Galega

Public forecast

Using degrees Celsius for public forecast. Weather courtesy of forecast.io.

Closest aviation weather report (METAR) to Herdade da Galega

Closest report is Monte Real Air Base, 36.0 nm (66.7 km) NW.

2024/06/14 00:00 (retrieved 24 minutes ago)

LPMR 140000Z 33003KT 9999 FEW009 SCT020 15/14 Q1020

Closest aviation forecast (TAF) to Herdade da Galega

Closest forecast is Badajoz Airport, 77.5 nm (143.6 km) ESE.

2024/06/13 21:27 (retrieved 3 hours ago)

TAF LEBZ 132000Z 1321/1421 29008KT CAVOK TX31/1415Z TN11/1405Z